Briefing drone pour Varois-et-chaignot

Rechercher une autre localisation

Conditions de vol :


Nous sommes le : Dimanche 29 janvier 2023
Il est 03:38 UTC (04:38 LT)

Lever de soleil : 06:43 UTC (07:43 LT)
Coucher de soleil : 17:02 UTC (18:02 LT)

Météo

L'essentiel des conditions de vol

VIGILANCE MÉTÉO FRANCE - Côte-dOr (21)
Pas de vigilances particulieres
CARTE TEMSI
CARTES DES FRONTS
METAR de LFSD
LFSD 290330Z AUTO 02006KT 9999 OVC034 01/M02 Q1027

Date d'émission: 29/01/2023
Heure d'émission: 03:30 UTC
Vent: 020° pour 6 KT (11 km/h)
Visibilité horizontale: > 10 km
Plafond :
- Couvert à 3400ft (1036m)
Température: 1 °C
Point de rosée: -2 °C
Humidité: 80%
Pression (QNH): 1027 hPa
TAF de LFSD
LFSD 010600Z 0100/0124 CNL

Conditions prévues :

Heure d'émission : Bulletin éffectué le 01 à 00:00 UTC
Prévision : Valide du 01 a 00:00 UTC au 01 a 23:59 UTC
Nuages : à 0ft (0 m)
WEBCAM POUR VAROIS-ET-CHAIGNOT

Réglementation

Voler en sécurité

CARTES AERONAUTIQUE 1/500.000
CARTE AZBA (Reseau basse altitude)
CARTES VAC (LFSD)
SUP AIP




Chargement des AIP...
NOTAM (VAROIS-ET-CHAIGNOT + Terrain à proximité / FIR )




Chargement des NOTAMS...
CONTACT PREFECTURE 21
Côte-dOr (21) : [email protected]


Avertissement : Les données mises à disposition sont indicatives. Oxygène Drone ne pourra être tenu responsable de dégâts causés aux biens et aux personnes.